CheckWX is a tool to help pilots better visualize weather data.  It is not intended as a substitute for an official pre-flight weather briefing.

20:33:31 UTC

KBIX METAR
Keesler AFB Airport
Biloxi, Mississippi, USA
Current

38 mins ago

KBIX 181956Z AUTO 05007KT 10SM OVC035 11/07 A3014 RMK AO2 SLP209 T01140071 $
Observed
Feb-18 @ 19:56 UTC
Wind
  • 050° at 7 KTS
Visibility
10 SM
Flight Rules
VFR
Cloud Levels
  • Overcast at 3,500' AGL
Temperature
11°C / 52°F
Dewpoint
C / 45°F
Humidity
77%
Altimeter
30.14" Hg
Pressure
1020.9 hPa
Previous

2 hours ago

KBIX 181856Z AUTO 04012G16KT 10SM BKN036 OVC046 11/08 A3015 RMK AO2 RAE47 SLP213 P0001 T01060077 $
Observed
Feb-18 @ 18:56 UTC
Wind
  • 040° at 12 KTS
  • Gusting to 16 KTS
Visibility
10 SM
Flight Rules
VFR
Cloud Levels
  • Broken at 3,600' AGL
  • Overcast at 4,600' AGL
Temperature
11°C / 52°F
Dewpoint
C / 46°F
Humidity
82%
Altimeter
30.15" Hg
Pressure
1021.3 hPa
Current Rain
0.01"
Previous

3 hours ago

KBIX 181756Z AUTO 03009KT 10SM -RA FEW016 FEW022 OVC038 10/08 A3018 RMK AO2 SLP223 P0001 60005 T00980081 10115 20095 50010 $
Observed
Feb-18 @ 17:56 UTC
Wind
  • 030° at 9 KTS
Visibility
10 SM
Flight Rules
VFR
Conditions
Light Rain
Cloud Levels
  • Few at 1,600' AGL
  • Few at 2,200' AGL
  • Overcast at 3,800' AGL
Temperature
10°C / 50°F
Dewpoint
C / 46°F
Humidity
88%
Altimeter
30.18" Hg
Pressure
1022.3 hPa
Current Rain
0.01"